createdAt,value
2023-01-08T00:00:28.370Z,20.00
2023-01-08T00:01:28.350Z,19.96
2023-01-08T00:02:28.326Z,20.00
2023-01-08T00:03:28.405Z,19.96
2023-01-08T00:04:28.294Z,19.97
2023-01-08T00:05:28.278Z,20.02
2023-01-08T00:06:28.268Z,19.96
2023-01-08T00:07:28.345Z,19.99
2023-01-08T00:08:28.221Z,20.00
2023-01-08T00:09:28.196Z,20.03
2023-01-08T00:10:28.178Z,20.03
2023-01-08T00:11:28.183Z,20.05
2023-01-08T00:12:28.149Z,20.00
2023-01-08T00:13:28.162Z,20.01
2023-01-08T00:14:28.117Z,20.00
2023-01-08T00:15:28.100Z,20.05
2023-01-08T00:16:28.121Z,19.99
2023-01-08T00:17:28.099Z,19.99
2023-01-08T00:18:28.055Z,20.08
2023-01-08T00:19:28.047Z,19.99
2023-01-08T00:20:28.695Z,20.03
2023-01-08T00:21:28.042Z,20.01
2023-01-08T00:22:28.063Z,19.99
2023-01-08T00:23:28.151Z,19.99
2023-01-08T00:24:27.971Z,19.99
2023-01-08T00:25:28.020Z,20.01
2023-01-08T00:26:27.992Z,20.01
2023-01-08T00:27:27.976Z,20.05
2023-01-08T00:28:27.913Z,20.05
2023-01-08T00:29:27.879Z,20.00
2023-01-08T00:30:27.911Z,20.05
2023-01-08T00:31:27.877Z,20.08
2023-01-08T00:32:27.843Z,20.05
2023-01-08T00:33:27.836Z,20.03
2023-01-08T00:34:27.835Z,20.00
2023-01-08T00:35:27.824Z,20.06
2023-01-08T00:36:27.801Z,20.05
2023-01-08T00:37:27.780Z,20.03
2023-01-08T00:38:27.762Z,20.06
2023-01-08T00:39:27.815Z,20.05
2023-01-08T00:40:27.718Z,20.09
2023-01-08T00:41:27.703Z,20.06
2023-01-08T00:42:27.711Z,20.11
2023-01-08T00:43:27.688Z,20.11
2023-01-08T00:44:27.685Z,20.00
2023-01-08T00:45:27.685Z,20.05
2023-01-08T00:46:27.647Z,20.08
2023-01-08T00:47:27.664Z,20.05
2023-01-08T00:48:27.607Z,20.05
2023-01-08T00:49:27.604Z,20.08
2023-01-08T00:50:27.538Z,20.09
2023-01-08T00:51:27.543Z,20.06
2023-01-08T00:52:27.519Z,20.06
2023-01-08T00:53:27.482Z,20.08
2023-01-08T00:54:27.474Z,20.05
2023-01-08T00:55:27.533Z,20.05
2023-01-08T00:56:27.432Z,20.03
2023-01-08T00:57:27.417Z,20.08
2023-01-08T00:58:27.388Z,20.09
2023-01-08T00:59:27.376Z,20.17
2023-01-08T01:00:27.352Z,20.09
2023-01-08T01:01:27.488Z,20.12
2023-01-08T01:02:27.326Z,20.17
2023-01-08T01:03:27.324Z,20.17
2023-01-08T01:04:27.358Z,20.12
2023-01-08T01:05:27.262Z,20.17
2023-01-08T01:06:27.249Z,20.17
2023-01-08T01:07:27.228Z,20.14
2023-01-08T01:08:27.241Z,20.16
2023-01-08T01:09:27.191Z,20.10
2023-01-08T01:10:27.169Z,20.14
2023-01-08T01:11:27.236Z,20.13
2023-01-08T01:12:27.132Z,20.17
2023-01-08T01:13:27.123Z,20.14
2023-01-08T01:14:27.105Z,20.15
2023-01-08T01:15:27.117Z,20.21
2023-01-08T01:16:27.098Z,20.15
2023-01-08T01:17:27.057Z,20.15
2023-01-08T01:18:27.054Z,20.13
2023-01-08T01:19:27.040Z,20.09
2023-01-08T01:20:27.023Z,20.15
2023-01-08T01:21:27.016Z,20.10
2023-01-08T01:22:27.012Z,20.10
2023-01-08T01:23:26.979Z,20.19
2023-01-08T01:24:26.969Z,20.13
2023-01-08T01:25:26.958Z,20.15
2023-01-08T01:26:26.944Z,20.12
2023-01-08T01:27:27.015Z,20.15
2023-01-08T01:28:26.908Z,20.12
2023-01-08T01:29:26.893Z,20.10
2023-01-08T01:30:26.868Z,20.19
2023-01-08T01:31:26.870Z,20.16
2023-01-08T01:32:26.843Z,20.21
2023-01-08T01:33:26.829Z,20.15
2023-01-08T01:34:26.815Z,20.21
2023-01-08T01:35:26.794Z,20.16
2023-01-08T01:36:26.785Z,20.24
2023-01-08T01:37:26.763Z,20.16
2023-01-08T01:38:26.744Z,20.21
2023-01-08T01:39:26.728Z,20.21
2023-01-08T01:40:26.725Z,20.24
2023-01-08T01:41:26.716Z,20.19
2023-01-08T01:42:26.701Z,20.19
2023-01-08T01:43:26.763Z,20.19
2023-01-08T01:44:26.649Z,20.21
2023-01-08T01:45:26.662Z,20.16
2023-01-08T01:46:26.614Z,20.19
2023-01-08T01:47:26.608Z,20.24
2023-01-08T01:48:26.596Z,20.19
2023-01-08T01:49:26.575Z,20.19
2023-01-08T01:50:26.547Z,20.19
2023-01-08T01:51:26.531Z,20.13
2023-01-08T01:52:26.513Z,20.21
2023-01-08T01:53:26.502Z,20.18
2023-01-08T01:54:26.474Z,20.13
2023-01-08T01:55:26.452Z,20.18
2023-01-08T01:56:26.441Z,20.27
2023-01-08T01:57:26.422Z,20.21
2023-01-08T01:58:26.422Z,20.16
2023-01-08T01:59:26.479Z,20.21
2023-01-08T02:00:26.373Z,20.21
2023-01-08T02:01:26.524Z,20.19
2023-01-08T02:02:26.460Z,20.21
2023-01-08T02:03:26.343Z,20.19
2023-01-08T02:04:26.370Z,20.19
2023-01-08T02:05:26.291Z,20.22
2023-01-08T02:06:26.267Z,20.27
2023-01-08T02:07:26.255Z,20.19
2023-01-08T02:08:26.238Z,20.21
2023-01-08T02:09:26.237Z,20.24
2023-01-08T02:10:26.200Z,20.19
2023-01-08T02:11:26.195Z,20.22
2023-01-08T02:12:26.190Z,20.24
2023-01-08T02:13:26.152Z,20.21
2023-01-08T02:14:26.148Z,20.22
2023-01-08T02:15:26.236Z,20.15
2023-01-08T02:16:26.165Z,20.18
2023-01-08T02:17:26.102Z,20.24
2023-01-08T02:18:26.076Z,20.22
2023-01-08T02:19:26.061Z,20.22
2023-01-08T02:20:26.041Z,20.24
2023-01-08T02:21:26.029Z,20.22
2023-01-08T02:22:26.018Z,20.21
2023-01-08T02:23:25.987Z,20.25
2023-01-08T02:24:25.971Z,20.27
2023-01-08T02:25:25.928Z,20.21
2023-01-08T02:26:25.918Z,20.21
2023-01-08T02:27:25.898Z,20.21
2023-01-08T02:28:25.880Z,20.18
2023-01-08T02:29:25.875Z,20.25
2023-01-08T02:30:25.863Z,20.19
2023-01-08T02:31:26.024Z,20.25
2023-01-08T02:32:25.838Z,20.22
2023-01-08T02:33:25.832Z,20.22
2023-01-08T02:34:25.800Z,20.18
2023-01-08T02:35:25.795Z,20.22
2023-01-08T02:36:25.774Z,20.21
2023-01-08T02:37:25.777Z,20.19
2023-01-08T02:38:25.721Z,20.21
2023-01-08T02:39:25.704Z,20.22
2023-01-08T02:40:25.690Z,20.13
2023-01-08T02:41:25.671Z,20.15
2023-01-08T02:42:25.683Z,20.19
2023-01-08T02:43:25.640Z,20.21
2023-01-08T02:44:25.664Z,20.23
2023-01-08T02:45:25.634Z,20.22
2023-01-08T02:46:25.688Z,20.24
2023-01-08T02:47:25.676Z,20.25
2023-01-08T02:48:25.588Z,20.27
2023-01-08T02:49:25.590Z,20.25
2023-01-08T02:50:25.542Z,20.25
2023-01-08T02:51:25.519Z,20.19
2023-01-08T02:52:25.506Z,20.22
2023-01-08T02:53:25.507Z,20.23
2023-01-08T02:54:25.487Z,20.22
2023-01-08T02:55:25.466Z,20.21
2023-01-08T02:56:25.461Z,20.25
2023-01-08T02:57:25.437Z,20.19
2023-01-08T02:58:25.432Z,20.30
2023-01-08T02:59:25.424Z,20.28
2023-01-08T03:00:25.402Z,20.27
2023-01-08T03:01:25.472Z,20.21
2023-01-08T03:02:25.478Z,20.28
2023-01-08T03:03:25.433Z,20.21
2023-01-08T03:04:25.384Z,20.22
2023-01-08T03:05:25.343Z,20.21
2023-01-08T03:06:25.305Z,20.30
2023-01-08T03:07:25.289Z,20.23
2023-01-08T03:08:25.283Z,20.31
2023-01-08T03:09:25.277Z,20.22
2023-01-08T03:10:25.286Z,20.23
2023-01-08T03:11:25.241Z,20.30
2023-01-08T03:12:25.228Z,20.25
2023-01-08T03:13:25.214Z,20.23
2023-01-08T03:14:25.209Z,20.23
2023-01-08T03:15:25.198Z,20.21
2023-01-08T03:16:25.295Z,20.25
2023-01-08T03:17:25.169Z,20.21
2023-01-08T03:18:25.161Z,20.23
2023-01-08T03:19:25.251Z,20.27
2023-01-08T03:20:25.169Z,20.21
2023-01-08T03:21:25.168Z,20.28
2023-01-08T03:22:25.142Z,20.19
2023-01-08T03:23:25.132Z,20.21
2023-01-08T03:24:25.130Z,20.23
2023-01-08T03:25:25.115Z,20.22
2023-01-08T03:26:25.117Z,20.27
2023-01-08T03:27:25.108Z,20.23
2023-01-08T03:28:25.102Z,20.19
2023-01-08T03:29:25.103Z,20.25
2023-01-08T03:30:25.099Z,20.27
2023-01-08T03:31:25.084Z,20.22
2023-01-08T03:32:25.096Z,20.22
2023-01-08T03:33:25.105Z,20.28
2023-01-08T03:34:25.072Z,20.26
2023-01-08T03:35:25.167Z,20.25
2023-01-08T03:36:25.043Z,20.26
2023-01-08T03:37:25.038Z,20.26
2023-01-08T03:38:25.037Z,20.25
2023-01-08T03:39:25.033Z,20.27
2023-01-08T03:40:25.479Z,20.25
2023-01-08T03:41:25.021Z,20.23
2023-01-08T03:42:25.010Z,20.22
2023-01-08T03:43:25.002Z,20.22
2023-01-08T03:44:24.994Z,20.20
2023-01-08T03:45:24.977Z,20.20
2023-01-08T03:46:25.040Z,20.17
2023-01-08T03:47:24.967Z,20.23
2023-01-08T03:48:24.969Z,20.19
2023-01-08T03:49:24.963Z,20.20
2023-01-08T03:50:24.967Z,20.22
2023-01-08T03:51:25.045Z,20.19
2023-01-08T03:52:24.938Z,20.22
2023-01-08T03:53:24.915Z,20.23
2023-01-08T03:54:24.948Z,20.25
2023-01-08T03:55:24.907Z,20.22
2023-01-08T03:56:24.916Z,20.17
2023-01-08T03:57:24.893Z,20.23
2023-01-08T03:58:24.878Z,20.16
2023-01-08T03:59:24.878Z,20.19
2023-01-08T04:00:24.872Z,20.20
2023-01-08T04:01:24.984Z,20.20
2023-01-08T04:02:25.043Z,20.14
2023-01-08T04:03:24.845Z,20.19
2023-01-08T04:04:24.868Z,20.16
2023-01-08T04:05:24.826Z,20.17
2023-01-08T04:06:24.815Z,20.16
2023-01-08T04:07:24.875Z,20.14
2023-01-08T04:08:24.778Z,20.16
2023-01-08T04:09:24.760Z,20.17
2023-01-08T04:10:24.756Z,20.16
2023-01-08T04:11:24.759Z,20.17
2023-01-08T04:12:24.734Z,20.23
2023-01-08T04:13:24.719Z,20.19
2023-01-08T04:14:24.717Z,20.20
2023-01-08T04:15:24.706Z,20.17
2023-01-08T04:16:24.714Z,20.17
2023-01-08T04:17:24.707Z,20.18
2023-01-08T04:18:24.704Z,20.20
2023-01-08T04:19:24.686Z,20.17
2023-01-08T04:20:24.681Z,20.24
2023-01-08T04:21:24.677Z,20.18
2023-01-08T04:22:24.673Z,20.14
2023-01-08T04:23:24.785Z,20.14
2023-01-08T04:24:24.649Z,20.20
2023-01-08T04:25:24.635Z,20.20
2023-01-08T04:26:24.647Z,20.22
2023-01-08T04:27:24.620Z,20.18
2023-01-08T04:28:24.619Z,20.21
2023-01-08T04:29:24.617Z,20.18
2023-01-08T04:30:24.600Z,20.17
2023-01-08T04:31:24.635Z,20.19
2023-01-08T04:32:24.590Z,20.16
2023-01-08T04:33:24.565Z,20.18
2023-01-08T04:34:24.554Z,20.17
2023-01-08T04:35:24.536Z,20.18
2023-01-08T04:36:24.530Z,20.23
2023-01-08T04:37:24.521Z,20.17
2023-01-08T04:38:24.522Z,20.21
2023-01-08T04:39:24.605Z,20.21
2023-01-08T04:40:24.487Z,20.20
2023-01-08T04:41:24.470Z,20.20
2023-01-08T04:42:24.464Z,20.21
2023-01-08T04:43:24.447Z,20.21
2023-01-08T04:44:24.437Z,20.20
2023-01-08T04:45:24.432Z,20.17
2023-01-08T04:46:24.490Z,20.17
2023-01-08T04:47:24.409Z,20.19
2023-01-08T04:48:24.412Z,20.24
2023-01-08T04:49:24.387Z,20.26
2023-01-08T04:50:24.379Z,20.18
2023-01-08T04:51:24.367Z,20.20
2023-01-08T04:52:24.369Z,20.17
2023-01-08T04:53:24.350Z,20.28
2023-01-08T04:54:24.363Z,20.20
2023-01-08T04:55:24.430Z,20.17
2023-01-08T04:56:24.319Z,20.20
2023-01-08T04:57:24.313Z,20.18
2023-01-08T04:58:24.300Z,20.20
2023-01-08T04:59:24.289Z,20.23
2023-01-08T05:00:24.291Z,20.21
2023-01-08T05:01:24.418Z,20.18
2023-01-08T05:02:24.460Z,20.24
2023-01-08T05:03:24.314Z,20.24
2023-01-08T05:04:24.243Z,20.20
2023-01-08T05:05:24.227Z,20.20
2023-01-08T05:06:24.203Z,20.21
2023-01-08T05:07:24.205Z,20.28
2023-01-08T05:08:24.222Z,20.24
2023-01-08T05:09:24.172Z,20.18
2023-01-08T05:10:24.168Z,20.20
2023-01-08T05:11:24.245Z,20.21
2023-01-08T05:12:24.136Z,20.24
2023-01-08T05:13:24.122Z,20.29
2023-01-08T05:14:24.110Z,20.20
2023-01-08T05:15:24.096Z,20.20
2023-01-08T05:16:24.111Z,20.21
2023-01-08T05:17:24.073Z,20.28
2023-01-08T05:18:24.049Z,20.27
2023-01-08T05:19:24.046Z,20.26
2023-01-08T05:20:24.035Z,20.26
2023-01-08T05:21:24.024Z,20.26
2023-01-08T05:22:24.029Z,20.24
2023-01-08T05:23:24.009Z,20.29
2023-01-08T05:24:23.996Z,20.23
2023-01-08T05:25:23.995Z,20.27
2023-01-08T05:26:23.968Z,20.23
2023-01-08T05:27:24.058Z,20.24
2023-01-08T05:28:23.949Z,20.23
2023-01-08T05:29:23.948Z,20.26
2023-01-08T05:30:23.942Z,20.24
2023-01-08T05:31:23.964Z,20.26
2023-01-08T05:32:23.925Z,20.26
2023-01-08T05:33:23.927Z,20.24
2023-01-08T05:34:23.898Z,20.29
2023-01-08T05:35:23.902Z,20.27
2023-01-08T05:36:23.882Z,20.23
2023-01-08T05:37:23.882Z,20.27
2023-01-08T05:38:23.890Z,20.26
2023-01-08T05:39:23.883Z,20.24
2023-01-08T05:40:23.867Z,20.24
2023-01-08T05:41:23.851Z,20.26
2023-01-08T05:42:23.853Z,20.24
2023-01-08T05:43:23.944Z,20.23
2023-01-08T05:44:23.836Z,20.21
2023-01-08T05:45:23.827Z,20.29
2023-01-08T05:46:23.845Z,20.21
2023-01-08T05:47:23.795Z,20.23
2023-01-08T05:48:23.784Z,20.21
2023-01-08T05:49:23.770Z,20.21
2023-01-08T05:50:23.754Z,20.20
2023-01-08T05:51:23.744Z,20.29
2023-01-08T05:52:23.731Z,20.27
2023-01-08T05:53:23.733Z,20.19
2023-01-08T05:54:23.704Z,20.24
2023-01-08T05:55:23.695Z,20.24
2023-01-08T05:56:23.689Z,20.24
2023-01-08T05:57:23.679Z,20.23
2023-01-08T05:58:23.665Z,20.20
2023-01-08T05:59:23.781Z,20.20
2023-01-08T06:00:23.651Z,20.18
2023-01-08T06:01:23.709Z,20.27
2023-01-08T06:02:23.684Z,20.27
2023-01-08T06:03:23.655Z,20.23
2023-01-08T06:04:23.642Z,20.18
2023-01-08T06:05:23.658Z,20.23
2023-01-08T06:06:23.651Z,20.21
2023-01-08T06:07:23.629Z,20.21
2023-01-08T06:08:23.597Z,20.23
2023-01-08T06:09:23.581Z,20.25
2023-01-08T06:10:23.532Z,20.26
2023-01-08T06:11:23.564Z,20.29
2023-01-08T06:12:23.504Z,20.22
2023-01-08T06:13:23.491Z,20.29
2023-01-08T06:14:23.490Z,20.26
2023-01-08T06:15:23.561Z,20.29
2023-01-08T06:16:23.511Z,20.25
2023-01-08T06:17:23.453Z,20.24
2023-01-08T06:18:23.442Z,20.19
2023-01-08T06:19:23.419Z,20.26
2023-01-08T06:20:23.405Z,20.25
2023-01-08T06:21:23.397Z,20.27
2023-01-08T06:22:23.385Z,20.21
2023-01-08T06:23:23.377Z,20.24
2023-01-08T06:24:23.366Z,20.24
2023-01-08T06:25:23.347Z,20.29
2023-01-08T06:26:23.333Z,20.27
2023-01-08T06:27:23.331Z,20.25
2023-01-08T06:28:23.321Z,20.30
2023-01-08T06:29:23.306Z,20.19
2023-01-08T06:30:23.285Z,20.19
2023-01-08T06:31:23.442Z,20.24
2023-01-08T06:32:23.256Z,20.21
2023-01-08T06:33:23.247Z,20.24
2023-01-08T06:34:23.237Z,20.26
2023-01-08T06:35:23.219Z,20.22
2023-01-08T06:36:23.204Z,20.25
2023-01-08T06:37:23.191Z,20.24
2023-01-08T06:38:23.173Z,20.22
2023-01-08T06:39:23.165Z,20.25
2023-01-08T06:40:23.157Z,20.24
2023-01-08T06:41:23.161Z,20.25
2023-01-08T06:42:23.140Z,20.22
2023-01-08T06:43:24.047Z,20.25
2023-01-08T06:44:23.127Z,20.27
2023-01-08T06:45:23.107Z,20.23
2023-01-08T06:46:23.101Z,20.21
2023-01-08T06:47:23.179Z,20.24
2023-01-08T06:48:23.070Z,20.16
2023-01-08T06:49:23.062Z,20.24
2023-01-08T06:50:23.068Z,20.22
2023-01-08T06:51:23.040Z,20.27
2023-01-08T06:52:23.037Z,20.25
2023-01-08T06:53:23.015Z,20.28
2023-01-08T06:54:23.014Z,20.27
2023-01-08T06:55:23.011Z,20.25
2023-01-08T06:56:22.987Z,20.19
2023-01-08T06:57:22.979Z,20.24
2023-01-08T06:58:22.974Z,20.25
2023-01-08T06:59:22.998Z,20.25
2023-01-08T07:00:22.953Z,20.23
2023-01-08T07:01:23.035Z,20.25
2023-01-08T07:02:25.404Z,20.22
2023-01-08T07:03:23.300Z,20.31
2023-01-08T07:04:23.142Z,20.21
2023-01-08T07:05:23.122Z,20.27
2023-01-08T07:06:23.134Z,20.27
2023-01-08T07:07:23.101Z,20.28
2023-01-08T07:08:23.086Z,20.27
2023-01-08T07:09:23.107Z,20.23
2023-01-08T07:10:23.071Z,20.30
2023-01-08T07:11:23.059Z,20.28
2023-01-08T07:12:23.045Z,20.22
2023-01-08T07:13:23.034Z,20.30
2023-01-08T07:14:23.028Z,20.34
2023-01-08T07:15:23.026Z,20.22
2023-01-08T07:16:23.052Z,20.28
2023-01-08T07:17:22.994Z,20.25
2023-01-08T07:18:22.973Z,20.23
2023-01-08T07:19:23.063Z,20.28
2023-01-08T07:20:22.971Z,20.28
2023-01-08T07:21:22.955Z,20.30
2023-01-08T07:22:22.949Z,20.28
2023-01-08T07:23:22.943Z,20.28
2023-01-08T07:24:22.930Z,20.28
2023-01-08T07:35:22.912Z,20.27
2023-01-08T10:00:21.352Z,20.47
2023-01-08T10:04:21.302Z,20.48
2023-01-08T10:06:21.268Z,20.52
2023-01-08T10:07:21.266Z,20.49
2023-01-08T10:08:21.252Z,20.46
2023-01-08T10:09:21.230Z,20.50
2023-01-08T10:10:21.220Z,20.49
2023-01-08T10:11:21.213Z,20.50
2023-01-08T10:12:21.207Z,20.49
2023-01-08T10:13:21.196Z,20.44
2023-01-08T10:14:21.193Z,20.53
2023-01-08T10:16:21.202Z,20.49
2023-01-08T10:17:21.151Z,20.50
2023-01-08T10:18:21.154Z,20.47
2023-01-08T10:19:21.132Z,20.47
2023-01-08T10:20:21.194Z,20.46
2023-01-08T10:21:21.111Z,20.50
2023-01-08T10:22:21.111Z,20.50
2023-01-08T10:23:21.124Z,20.49
2023-01-08T10:24:21.109Z,20.50
2023-01-08T10:25:21.092Z,20.47
2023-01-08T10:26:21.093Z,20.52
2023-01-08T10:27:21.061Z,20.49
2023-01-08T10:28:21.056Z,20.52
2023-01-08T10:29:21.041Z,20.50
2023-01-08T10:30:21.029Z,20.50
2023-01-08T10:31:21.081Z,20.50
2023-01-08T10:32:21.010Z,20.54
2023-01-08T10:33:21.000Z,20.53
2023-01-08T10:34:20.975Z,20.49
2023-01-08T10:35:20.965Z,20.54
2023-01-08T10:36:20.956Z,20.58
2023-01-08T10:37:20.941Z,20.55
2023-01-08T10:38:20.921Z,20.52
2023-01-08T10:39:20.911Z,20.55
2023-01-08T10:40:20.929Z,20.55
2023-01-08T10:41:20.891Z,20.52
2023-01-08T10:42:20.893Z,20.52
2023-01-08T10:43:20.872Z,20.55
2023-01-08T10:44:20.867Z,20.52
2023-01-08T10:45:20.854Z,20.54
2023-01-08T10:46:20.856Z,20.50
2023-01-08T10:47:20.839Z,20.54
2023-01-08T10:48:20.829Z,20.55
2023-01-08T10:49:20.823Z,20.54
2023-01-08T10:50:20.879Z,20.56
2023-01-08T10:51:20.809Z,20.55
2023-01-08T10:52:20.796Z,20.56
2023-01-08T10:53:20.790Z,20.49
2023-01-08T10:54:20.780Z,20.56
2023-01-08T10:55:20.762Z,20.54
2023-01-08T10:56:20.741Z,20.52
2023-01-08T10:57:20.752Z,20.54
2023-01-08T10:58:20.723Z,20.55
2023-01-08T10:59:20.708Z,20.61
2023-01-08T11:00:20.733Z,20.58
2023-01-08T11:01:20.703Z,20.58
2023-01-08T11:02:20.702Z,20.58
2023-01-08T11:03:20.745Z,20.59
2023-01-08T11:04:20.638Z,20.61
2023-01-08T11:05:20.618Z,20.59
2023-01-08T11:06:20.619Z,20.58
2023-01-08T11:07:20.597Z,20.56
2023-01-08T11:08:22.879Z,20.54
2023-01-08T11:09:20.726Z,20.57
2023-01-08T11:10:20.706Z,20.54
2023-01-08T11:11:20.697Z,20.55
2023-01-08T11:12:20.697Z,20.59
2023-01-08T11:13:20.703Z,20.63
2023-01-08T11:14:20.694Z,20.52
2023-01-08T11:15:20.672Z,20.58
2023-01-08T11:16:20.686Z,20.59
2023-01-08T11:17:20.667Z,20.58
2023-01-08T11:18:20.670Z,20.61
2023-01-08T11:19:20.663Z,20.60
2023-01-08T11:20:20.643Z,20.56
2023-01-08T11:21:20.637Z,20.59
2023-01-08T11:22:20.618Z,20.56
2023-01-08T11:23:20.616Z,20.59
2023-01-08T11:24:20.591Z,20.56
2023-01-08T11:25:20.583Z,20.55
2023-01-08T11:26:20.593Z,20.56
2023-01-08T11:27:20.563Z,20.51
2023-01-08T11:28:20.553Z,20.52
2023-01-08T11:29:20.549Z,20.49
2023-01-08T11:30:20.541Z,20.54
2023-01-08T11:31:20.636Z,20.56
2023-01-08T11:32:20.519Z,20.57
2023-01-08T11:33:20.502Z,20.58
2023-01-08T11:34:20.492Z,20.57
2023-01-08T11:35:20.495Z,20.55
2023-01-08T11:36:20.493Z,20.55
2023-01-08T11:37:20.471Z,20.57
2023-01-08T11:38:20.464Z,20.54
2023-01-08T11:39:20.443Z,20.54
2023-01-08T11:40:20.435Z,20.57
2023-01-08T11:41:20.436Z,20.54
2023-01-08T11:42:20.426Z,20.54
2023-01-08T11:43:20.420Z,20.49
2023-01-08T11:44:20.408Z,20.52
2023-01-08T11:45:20.388Z,20.51
2023-01-08T11:46:20.387Z,20.54
2023-01-08T11:47:20.373Z,20.60
2023-01-08T11:48:20.363Z,20.51
2023-01-08T11:49:20.350Z,20.54
2023-01-08T11:50:20.346Z,20.57
2023-01-08T11:51:20.341Z,20.57
2023-01-08T11:52:20.332Z,20.59
2023-01-08T11:53:20.332Z,20.59
2023-01-08T11:54:20.317Z,20.57
2023-01-08T11:55:20.318Z,20.59
2023-01-08T11:56:20.302Z,20.56
2023-01-08T11:57:20.291Z,20.60
2023-01-08T11:58:20.292Z,20.59
2023-01-08T11:59:20.276Z,20.56
2023-01-08T12:00:20.280Z,20.56
2023-01-08T12:01:20.278Z,20.57
2023-01-08T12:02:20.298Z,20.56
2023-01-08T12:03:20.261Z,20.57
2023-01-08T12:04:20.233Z,20.59
2023-01-08T12:05:20.243Z,20.57
2023-01-08T12:06:20.213Z,20.59
2023-01-08T12:07:20.212Z,20.60
2023-01-08T12:08:20.202Z,20.63
2023-01-08T12:09:20.190Z,20.61
2023-01-08T12:10:20.185Z,20.61
2023-01-08T12:11:20.171Z,20.57
2023-01-08T12:12:20.178Z,20.60
2023-01-08T12:13:20.159Z,20.65
2023-01-08T12:14:20.162Z,20.63
2023-01-08T12:15:20.150Z,20.63
2023-01-08T12:16:20.236Z,20.66
2023-01-08T12:17:20.136Z,20.61
2023-01-08T12:18:20.124Z,20.66
2023-01-08T12:19:20.126Z,20.66
2023-01-08T12:20:20.128Z,20.57
2023-01-08T12:21:20.116Z,20.61
2023-01-08T12:22:20.096Z,20.65
2023-01-08T12:23:20.096Z,20.60
2023-01-08T12:24:20.090Z,20.69
2023-01-08T12:25:20.066Z,20.66
2023-01-08T12:26:20.067Z,20.66
2023-01-08T12:27:20.479Z,20.64
2023-01-08T12:28:20.063Z,20.63
2023-01-08T12:29:20.039Z,20.66
2023-01-08T12:30:20.039Z,20.70
2023-01-08T12:31:20.081Z,20.61
2023-01-08T12:32:20.083Z,20.69
2023-01-08T12:33:20.001Z,20.69
2023-01-08T12:34:19.989Z,20.70
2023-01-08T12:35:19.991Z,20.69
2023-01-08T12:36:19.980Z,20.73
2023-01-08T12:37:19.961Z,20.69
2023-01-08T12:38:19.951Z,20.75
2023-01-08T12:39:19.944Z,20.70
2023-01-08T12:40:19.984Z,20.77
2023-01-08T12:41:19.929Z,20.75
2023-01-08T12:42:19.917Z,20.70
2023-01-08T12:43:19.904Z,20.74
2023-01-08T12:44:19.897Z,20.72
2023-01-08T12:45:19.874Z,20.77
2023-01-08T12:46:19.928Z,20.80
2023-01-08T12:47:19.857Z,20.83
2023-01-08T12:48:19.867Z,20.80
2023-01-08T12:49:19.839Z,20.77
2023-01-08T12:50:19.868Z,20.86
2023-01-08T12:51:19.849Z,20.83
2023-01-08T12:52:19.804Z,20.86
2023-01-08T12:53:19.816Z,20.84
2023-01-08T12:54:19.777Z,20.87
2023-01-08T12:55:19.766Z,20.84
2023-01-08T12:56:19.788Z,20.84
2023-01-08T12:57:19.749Z,20.88
2023-01-08T12:58:19.723Z,20.92
2023-01-08T12:59:19.723Z,20.93
2023-01-08T13:00:19.708Z,20.94
2023-01-08T13:01:19.934Z,20.94
2023-01-08T13:02:19.781Z,20.92
2023-01-08T13:03:19.692Z,20.99
2023-01-08T13:04:19.665Z,20.98
2023-01-08T13:05:19.664Z,20.99
2023-01-08T13:06:19.635Z,21.01
2023-01-08T13:07:19.618Z,21.01
2023-01-08T13:08:19.606Z,21.04
2023-01-08T13:09:19.595Z,20.96
2023-01-08T13:10:19.601Z,21.01
2023-01-08T13:11:19.571Z,21.02
2023-01-08T13:12:19.561Z,20.98
2023-01-08T13:13:19.572Z,21.01
2023-01-08T13:14:19.542Z,21.04
2023-01-08T13:15:19.527Z,21.07
2023-01-08T13:16:19.577Z,21.07
2023-01-08T13:17:19.506Z,21.07
2023-01-08T13:18:19.486Z,21.08
2023-01-08T13:19:19.469Z,21.05
2023-01-08T13:20:19.451Z,21.05
2023-01-08T13:21:19.436Z,21.02
2023-01-08T13:22:19.412Z,20.99
2023-01-08T13:23:19.389Z,21.04
2023-01-08T13:24:19.376Z,20.99
2023-01-08T13:25:19.372Z,21.09
2023-01-08T13:26:19.375Z,21.05
2023-01-08T13:27:19.348Z,21.04
2023-01-08T13:28:19.343Z,21.04
2023-01-08T13:29:19.313Z,21.07
2023-01-08T13:30:19.295Z,21.02
2023-01-08T13:31:19.315Z,21.05
2023-01-08T13:32:19.284Z,21.02
2023-01-08T13:33:19.254Z,21.07
2023-01-08T13:34:19.252Z,20.99
2023-01-08T13:35:19.225Z,21.05
2023-01-08T13:36:19.226Z,21.05
2023-01-08T13:37:27.197Z,21.00
2023-01-08T13:38:20.188Z,21.02
2023-01-08T13:39:19.163Z,21.03
2023-01-08T13:40:19.156Z,20.99
2023-01-08T13:41:19.143Z,21.02
2023-01-08T13:42:19.167Z,21.03
2023-01-08T13:43:19.150Z,21.03
2023-01-08T13:44:19.110Z,21.05
2023-01-08T13:45:19.101Z,21.05
2023-01-08T13:46:19.089Z,21.02
2023-01-08T13:47:19.078Z,21.06
2023-01-08T13:48:19.069Z,21.05
2023-01-08T13:49:19.050Z,21.03
2023-01-08T13:50:19.035Z,21.06
2023-01-08T13:51:19.041Z,21.02
2023-01-08T13:52:19.013Z,21.06
2023-01-08T13:53:19.040Z,21.06
2023-01-08T13:54:19.947Z,21.08
2023-01-08T13:55:18.996Z,21.06
2023-01-08T13:56:18.956Z,21.03
2023-01-08T13:57:18.999Z,21.08
2023-01-08T13:58:18.930Z,21.06
2023-01-08T13:59:18.962Z,21.06
2023-01-08T14:00:18.891Z,21.04
2023-01-08T14:01:19.576Z,21.06
2023-01-08T14:02:18.979Z,21.04
2023-01-08T14:03:18.899Z,21.05
2023-01-08T14:04:18.840Z,21.08
2023-01-08T14:05:18.835Z,21.09
2023-01-08T14:06:18.803Z,21.06
2023-01-08T14:07:18.800Z,21.11
2023-01-08T14:08:18.882Z,21.04
2023-01-08T14:09:18.915Z,21.08
2023-01-08T14:10:18.751Z,21.12
2023-01-08T14:11:18.806Z,21.17
2023-01-08T14:12:18.787Z,21.09
2023-01-08T14:13:18.732Z,21.11
2023-01-08T14:14:18.664Z,21.17
2023-01-08T14:15:18.661Z,21.14
2023-01-08T14:16:18.683Z,21.12
2023-01-08T14:17:18.669Z,21.14
2023-01-08T14:18:18.657Z,21.14
2023-01-08T14:19:18.628Z,21.15
2023-01-08T14:20:18.619Z,21.17
2023-01-08T14:21:18.611Z,21.15
2023-01-08T14:22:18.595Z,21.12
2023-01-08T14:23:18.597Z,21.17
2023-01-08T14:24:18.590Z,21.20
2023-01-08T14:25:18.584Z,21.18
2023-01-08T14:26:18.561Z,21.20
2023-01-08T14:27:18.555Z,21.21
2023-01-08T14:28:18.577Z,21.12
2023-01-08T14:29:18.525Z,21.21
2023-01-08T14:30:18.525Z,21.17
2023-01-08T14:31:18.537Z,21.15
2023-01-08T14:32:18.507Z,21.20
2023-01-08T14:33:18.502Z,21.23
2023-01-08T14:34:18.486Z,21.21
2023-01-08T14:35:18.492Z,21.20
2023-01-08T14:36:18.459Z,21.18
2023-01-08T14:37:18.439Z,21.14
2023-01-08T14:38:18.419Z,21.24
2023-01-08T14:39:18.407Z,21.24
2023-01-08T14:40:18.398Z,21.20
2023-01-08T14:41:18.383Z,21.27
2023-01-08T14:42:18.374Z,21.20
2023-01-08T14:43:18.362Z,21.20
2023-01-08T14:44:21.029Z,21.21
2023-01-08T14:45:19.336Z,21.21
2023-01-08T14:46:18.311Z,21.24
2023-01-08T14:47:18.321Z,21.20
2023-01-08T14:48:18.291Z,21.26
2023-01-08T14:49:18.283Z,21.29
2023-01-08T14:50:18.265Z,21.27
2023-01-08T14:51:18.262Z,21.29
2023-01-08T14:52:18.237Z,21.26
2023-01-08T14:53:18.222Z,21.26
2023-01-08T14:54:18.220Z,21.26
2023-01-08T14:55:18.204Z,21.24
2023-01-08T14:56:18.215Z,21.27
2023-01-08T14:57:18.195Z,21.20
2023-01-08T14:58:18.166Z,21.24
2023-01-08T14:59:18.161Z,21.30
2023-01-08T15:00:18.140Z,21.30
2023-01-08T15:01:18.214Z,21.27
2023-01-08T15:02:18.313Z,21.33
2023-01-08T15:03:18.099Z,21.38
2023-01-08T15:04:18.083Z,21.30
2023-01-08T15:05:18.069Z,21.32
2023-01-08T15:06:18.047Z,21.33
2023-01-08T15:07:18.040Z,21.27
2023-01-08T15:08:18.031Z,21.33
2023-01-08T15:09:18.025Z,21.36
2023-01-08T15:10:18.017Z,21.30
2023-01-08T15:11:18.007Z,21.32
2023-01-08T15:12:17.991Z,21.33
2023-01-08T15:13:17.984Z,21.39
2023-01-08T15:14:17.990Z,21.37
2023-01-08T15:15:17.976Z,21.32
2023-01-08T15:16:17.997Z,21.32
2023-01-08T15:17:17.955Z,21.36
2023-01-08T15:18:17.952Z,21.41
2023-01-08T15:19:17.933Z,21.35
2023-01-08T15:20:17.922Z,21.28
2023-01-08T15:21:17.918Z,21.39
2023-01-08T15:22:17.906Z,21.35
2023-01-08T15:23:17.898Z,21.43
2023-01-08T15:24:17.891Z,21.37
2023-01-08T15:25:17.888Z,21.32
2023-01-08T15:26:17.908Z,21.33
2023-01-08T15:27:17.873Z,21.39
2023-01-08T15:28:17.861Z,21.33
2023-01-08T15:29:17.857Z,21.37
2023-01-08T15:30:17.844Z,21.36
2023-01-08T15:31:17.863Z,21.40